Accueil
METAR-TAF:

METAR-TAF

Aéroports :

Aéroport d'Annecy Haute-Savoie Mont-Blanc

Annecy, France

latitude: 45-55-45N, longitude: 006-05-56E, altitude: 463 m

Observation

Le bulletin a été fait il y a 17 minutes, à 19:00 UTC
Vent 2 kt de direction variable
Température 11°C
Humidité 82%
Pression 1026 hPa
Visibilité: 7000 m

METAR: LFLP 201900Z AUTO VRB02KT 7000 NSC 11/08 Q1026 NOSIG

Heure: 21:17 (19:17 UTC)

Prévision

Le bulletin a été fait il y a 5 heures et 17 minutes, à 14:00 UTC
Prévision valable du 20 à 15 UTC au 21 à 15 UTC
Vent 3 kt de direction variable
Visibilité: 8000 m
Temporairement
du 20 à 15 UTC au 20 à 17 UTC
Vent 10 kt de nord
Temporairement
du 21 à 00 UTC au 21 à 10 UTC
Visibilité: 3000 m
brume
Probabilité 40% :
Temporairement
du 21 à 05 UTC au 21 à 10 UTC
Nuages fragmentés à une hauteur de 1400 ft

TAF: LFLP 201400Z 2015/2115 VRB03KT 8000 NSC TEMPO 2015/2017 36010KT TEMPO 2100/2110 3000 BR PROB40 TEMPO 2105/2110 BKN014

Observations et prévisions météorologiques de plus de 4000 aéroports (messages METAR et TAF).

Les stations disponibles sont représentées par des disques jaunes et rouges sur la carte.

Passer la souris dessus pour voir le nom de la station.

Cliquer dessus pour voir les observations et prévisions météorologiques.

Pour changer de carte: cliquez sur les boutons verts avec une croix noire pour zoomer, sur le bouton vert avec un tiret pour effectuer un zoom arrière, ou sur les flèches vertes pour les cartes adjacentes.


METAR-TAF: